Monday, December 17, 2018, 4:57 AM EST
Back to Local

KLFI, Langley Air Force Base

Location: Hampton, VA, United States Lat: 37.083
Local Time: 4:57 AM EST ( 9:57 GMT) Lon: -76.35
Time Zone: US/Eastern Elev: 9 ft

Show me the last for .
Show Coded

Time T Td Feel RH Dir Speed Gust Alt SLP Vis Weather Sky Remarks
2018-12-17 03:56 40 39 35 95 270° 7 - 29.92 29.94 10 CLR None
2018-12-17 02:56 44 39 40 84 270° 7 - 29.92 29.94 10 OVC038 None
2018-12-17 01:56 44 39 41 81 290° 7 - 29.94 29.96 10 OVC038 None
2018-12-17 01:11 45 39 39 81 320° 10 - 29.93 29.95 10 OVC034 None
2018-12-17 00:56 45 39 39 77 330° 13 - 29.93 29.95 10 OVC031 6-hr Min Temp (1am): 43.2°F
6-hr Max Temp (1am): 47.1°F
2018-12-16 23:56 45 39 39 78 300° 12 - 29.93 29.95 10 OVC031 24-hr Min Temp (12am): 43.2°F
24-hr Max Temp (12am): 54.0°F
2018-12-16 23:26 45 39 38 81 330° 14 - 29.94 29.96 10 OVC033 None
2018-12-16 22:56 44 40 39 85 320° 10 - 29.93 29.95 10 BKN036 None
2018-12-16 21:56 44 40 38 88 300° 9 - 29.93 29.95 10 FEW070 None
2018-12-16 20:56 45 42 39 90 310° 12 - 29.93 29.95 10 OVC065 None
2018-12-16 20:26 45 43 40 93 320° 9 - 29.91 29.93 10 SCT013 OVC065 None
2018-12-16 19:56 46 43 41 88 310° 10 - 29.90 29.92 10 OVC014 None
2018-12-16 19:41 46 43 41 87 300° 10 - 29.90 29.92 10 OVC014 None
2018-12-16 18:56 47 44 42 90 310° 13 - 29.89 29.91 10 BKN016 OVC085 6-hr Precip Total (7pm): 0.00"
6-hr Min Temp (7pm): 47.1°F
6-hr Max Temp (7pm): 52.3°F
2018-12-16 18:11 48 45 41 87 290° 15 23 29.87 29.89 10 BKN018 OVC031 None
2018-12-16 17:56 48 45 43 89 280° 14 - 29.86 29.88 10 FEW016 OVC031 None
2018-12-16 16:56 49 47 44 94 270° 14 - 29.84 29.86 10 BKN012 BKN020 OVC037 None
2018-12-16 15:56 50 48 43 94 290° 17 23 29.81 29.83 10 OVC012 6-hr Precip Total (4pm): 0.00"
2018-12-16 14:56 51 49 - 92 280° 15 21 29.81 29.83 10 OVC013 None
2018-12-16 13:56 51 49 - 91 260° 15 24 29.79 29.81 10 BKN013 OVC020 1-hr Precip Total: Trace
2018-12-16 13:31 52 50 - 93 260° 12 - 29.78 29.80 9 SCT013 BKN025 BKN044 BKN110 None
2018-12-16 13:04 52 50 - 93 240° 16 - 29.79 29.81 10 -RA SCT014 BKN021 BKN044 OVC060 None
2018-12-16 12:56 53 50 - 89 250° 16 - 29.79 29.81 10 SCT014 BKN021 BKN029 OVC060 6-hr Min Temp (1pm): 47.8°F
6-hr Max Temp (1pm): 53.1°F
2018-12-16 12:55 53 50 - 89 250° 16 - 29.79 29.81 10 SCT014 BKN021 OVC060 6-hr Min Temp (1pm): 47.8°F
6-hr Max Temp (1pm): 53.1°F
2018-12-16 12:31 52 50 - 93 260° 14 - 29.80 29.82 10 SCT015 BKN022 None
2018-12-16 12:11 52 50 - 93 260° 14 - 29.80 29.82 10 BKN015 OVC022 None
2018-12-16 11:56 52 50 - 94 260° 13 - 29.81 29.83 10 SCT014 BKN055 None
2018-12-16 10:56 51 51 - 100 240° 8 - 29.83 29.85 8 SCT010 OVC055 None
2018-12-16 09:58 51 51 - 100 230° 9 - 29.86 29.88 8 BKN009 OVC050 None
2018-12-16 09:56 51 51 - 100 230° 8 - 29.86 29.88 8 BKN009 OVC050 None
2018-12-16 08:56 51 51 - 100 200° 12 - 29.86 29.88 9 FEW009 None
2018-12-16 08:26 50 50 47 100 190° 7 - 29.86 29.88 9 SCT009 BKN050 None
2018-12-16 08:24 50 50 47 100 200° 7 - 29.86 29.88 9 FEW010 SCT050 None
2018-12-16 08:11 48 48 45 100 210° 8 - 29.87 29.89 9 BKN009 None
2018-12-16 07:57 49 49 45 100 210° 8 - 29.87 29.89 9 SCT010 BKN050 None
2018-12-16 07:56 48 48 44 100 210° 8 - 29.87 29.89 10 SCT010 BKN050 None
2018-12-16 07:26 48 48 45 100 220° 8 - 29.87 29.89 10 FEW011 OVC050 None
2018-12-16 07:11 48 48 44 100 220° 10 - 29.87 29.89 10 BKN011 OVC050 None
2018-12-16 07:06 48 48 44 100 220° 10 - 29.87 29.89 10 SCT011 BKN050 None
2018-12-16 06:56 49 49 45 100 220° 10 - 29.87 29.89 10 OVC011 24-hr Precip Total (7am): 0.38"
6-hr Min Temp (7am): 47.7°F
6-hr Max Temp (7am): 52.2°F
2018-12-16 06:34 48 48 44 100 220° 9 - 29.87 29.89 10 SCT011 None
2018-12-16 06:26 48 48 44 100 220° 10 - 29.87 29.89 10 BKN011 None
2018-12-16 05:56 48 48 46 100 260° 5 - 29.87 29.89 10 FEW012 None
2018-12-16 05:26 48 48 43 100 240° 12 - 29.87 29.89 10 SCT013 None

Support USWX by starting your Amazon purchase here.